Time;durP1;ratioP1;P1;durP2;ratioP2;P2;SDS_P1;SDS_P2;PMS_P1;PMS_P2;Temp;Humidity;BMP_temperature;BMP_pressure;BME280_temperature;BME280_humidity;BME280_pressure;Samples;Min_cycle;Max_cycle;Signal;HPM_P1;HPM_P2
2022/10/30 00:01:51;;;;;;;57.95;9.50;;;;;;;21.78;47.18;102775.72;4180989;28;20079;-71
2022/10/30 00:03:57;;;;;;;46.75;9.07;;;;;;;21.44;47.19;102724.50;4198910;28;20048;-71
2022/10/30 00:06:11;;;;;;;50.28;9.45;;;;;;;21.58;47.21;102736.25;4198906;28;20036;-71
2022/10/30 00:08:14;;;;;;;45.00;9.30;;;;;;;21.76;47.23;102772.34;4197575;28;20036;-71
2022/10/30 00:10:21;;;;;;;50.08;9.23;;;;;;;21.48;47.18;102720.13;4198919;28;20434;-71
2022/10/30 00:12:22;;;;;;;49.75;8.98;;;;;;;21.69;47.08;102763.25;4198926;28;20040;-71
2022/10/30 00:14:24;;;;;;;46.13;8.10;;;;;;;21.74;46.85;102771.72;4199159;28;20032;-71
2022/10/30 00:16:25;;;;;;;44.58;9.05;;;;;;;21.56;46.83;102741.22;4198177;28;20044;-71
2022/10/30 00:18:26;;;;;;;51.83;7.78;;;;;;;21.73;47.10;102764.47;4198951;28;20360;-71
2022/10/30 00:20:28;;;;;;;46.20;7.57;;;;;;;21.73;46.71;102767.25;4199009;28;20036;-71
2022/10/30 00:22:29;;;;;;;41.78;7.82;;;;;;;21.73;46.95;102764.47;4199084;28;20029;-70
2022/10/30 00:24:36;;;;;;;43.90;8.00;;;;;;;21.60;46.99;102742.41;4198881;28;20040;-70
2022/10/30 00:26:47;;;;;;;45.40;8.07;;;;;;;21.67;46.59;102747.84;4198365;28;20090;-70
2022/10/30 00:28:52;;;;;;;40.40;7.68;;;;;;;21.72;46.84;102760.00;4198290;28;20541;-70
2022/10/30 00:30:57;;;;;;;35.40;6.35;;;;;;;21.71;46.92;102761.06;4198631;28;20037;-70
2022/10/30 00:32:58;;;;;;;49.08;8.18;;;;;;;21.67;46.91;102757.09;4198843;28;20082;-70
2022/10/30 00:34:59;;;;;;;37.47;8.23;;;;;;;21.70;46.61;102756.59;4198667;28;20426;-70
2022/10/30 00:37:01;;;;;;;35.53;6.75;;;;;;;21.64;46.79;102754.78;4198685;28;20403;-70
2022/10/30 00:39:02;;;;;;;40.53;7.07;;;;;;;21.42;46.67;102711.91;4198751;28;20044;-70
2022/10/30 00:41:04;;;;;;;42.83;7.43;;;;;;;21.69;46.60;102754.91;4198299;28;20036;-70
2022/10/30 00:43:36;;;;;;;40.53;7.45;;;;;;;21.66;46.77;102752.59;4198457;28;20036;-71
2022/10/30 00:45:37;;;;;;;32.22;5.88;;;;;;;21.68;46.33;102755.16;4197984;28;20041;-70
2022/10/30 00:47:54;;;;;;;35.15;7.53;;;;;;;21.66;46.34;102763.72;4198575;28;20037;-70
2022/10/30 00:50:34;;;;;;;38.20;8.38;;;;;;;21.65;46.65;102766.78;4198581;28;20085;-71
2022/10/30 00:52:41;;;;;;;34.10;7.22;;;;;;;21.60;46.57;102759.13;4198483;28;20028;-71
2022/10/30 00:54:43;;;;;;;44.63;6.93;;;;;;;21.67;46.58;102759.88;4198495;28;20029;-71
2022/10/30 00:56:46;;;;;;;39.13;6.47;;;;;;;21.66;46.52;102752.59;4198010;28;20093;-69
2022/10/30 00:58:56;;;;;;;33.22;7.22;;;;;;;21.62;46.43;102756.09;4198250;28;20110;-69
2022/10/30 01:01:00;;;;;;;25.55;6.63;;;;;;;21.65;46.40;102761.19;4198193;28;20090;-70
2022/10/30 01:03:05;;;;;;;29.17;6.60;;;;;;;21.41;46.59;102715.78;4196779;28;20044;-69
2022/10/30 01:05:06;;;;;;;29.52;6.15;;;;;;;21.64;46.27;102753.94;4197633;28;20041;-70
2022/10/30 01:07:15;;;;;;;30.45;5.93;;;;;;;21.57;46.52;102732.59;4198201;28;20086;-70
2022/10/30 01:09:24;;;;;;;21.83;5.82;;;;;;;21.63;46.54;102741.94;4197898;28;20052;-70
2022/10/30 01:11:26;;;;;;;23.52;7.00;;;;;;;21.63;46.33;102752.25;4197672;28;20044;-70
2022/10/30 01:13:28;;;;;;;36.85;6.05;;;;;;;21.62;46.59;102743.00;4198219;28;20078;-69
2022/10/30 01:15:37;;;;;;;20.52;6.05;;;;;;;21.55;46.40;102739.53;4197651;28;20097;-69
2022/10/30 01:18:01;;;;;;;32.53;6.47;;;;;;;21.59;46.43;102746.31;4197636;28;20036;-69
2022/10/30 01:20:46;;;;;;;35.20;7.05;;;;;;;21.57;46.29;102748.47;4197917;28;20036;-71
2022/10/30 01:23:22;;;;;;;33.78;5.65;;;;;;;21.53;46.19;102727.75;4186190;28;20102;-71
2022/10/30 01:25:47;;;;;;;30.33;5.88;;;;;;;21.61;46.16;102738.53;4197571;28;20414;-71
2022/10/30 01:28:19;;;;;;;26.98;5.07;;;;;;;21.59;46.22;102735.16;4197887;28;20044;-71
2022/10/30 01:30:37;;;;;;;24.42;5.80;;;;;;;21.55;46.09;102728.38;4197839;28;20044;-71
2022/10/30 01:32:38;;;;;;;21.00;5.93;;;;;;;21.58;46.34;102725.13;4197345;28;20502;-71
2022/10/30 01:35:05;;;;;;;25.30;6.03;;;;;;;21.56;46.21;102724.50;4197811;28;20096;-71
2022/10/30 01:37:27;;;;;;;25.42;5.05;;;;;;;21.50;46.22;102714.34;4191612;28;20037;-70
2022/10/30 01:39:36;;;;;;;23.77;5.88;;;;;;;21.55;46.44;102718.06;4197914;28;20033;-70
2022/10/30 01:41:46;;;;;;;22.70;5.68;;;;;;;21.37;46.21;102682.00;4197193;28;20109;-70
2022/10/30 01:43:52;;;;;;;21.58;5.07;;;;;;;21.33;46.37;102685.50;4197068;28;20041;-70
2022/10/30 01:46:17;;;;;;;23.10;5.10;;;;;;;21.50;46.50;102712.38;4197362;28;20045;-70
2022/10/30 01:48:21;;;;;;;26.90;6.72;;;;;;;21.52;46.29;102717.69;4197309;28;20049;-70
2022/10/30 01:50:57;;;;;;;25.30;5.20;;;;;;;21.49;46.21;102713.47;4197529;28;20036;-69
2022/10/30 01:53:13;;;;;;;28.60;6.15;;;;;;;21.50;46.24;102708.75;4197619;28;20044;-70
2022/10/30 01:55:55;;;;;;;22.60;5.15;;;;;;;21.50;46.20;102705.97;4197446;28;20040;-70
2022/10/30 01:58:06;;;;;;;19.27;5.05;;;;;;;21.34;45.97;102676.91;4197592;28;20094;-69
2022/10/30 02:00:10;;;;;;;19.83;5.43;;;;;;;21.40;46.37;102686.25;4197635;28;20041;-70
2022/10/30 02:02:15;;;;;;;26.50;5.30;;;;;;;21.52;46.11;102707.41;4197499;28;20048;-70
2022/10/30 02:04:16;;;;;;;19.05;5.32;;;;;;;21.52;46.08;102703.78;4197447;28;20045;-70
2022/10/30 02:06:18;;;;;;;16.23;5.03;;;;;;;21.38;46.32;102680.91;4197245;28;20437;-69
2022/10/30 02:08:22;;;;;;;21.00;5.20;;;;;;;21.49;46.20;102696.78;4197355;28;20049;-70
2022/10/30 02:10:23;;;;;;;20.90;5.37;;;;;;;21.51;45.98;102696.53;4197704;28;20032;-70
2022/10/30 02:12:26;;;;;;;19.58;5.10;;;;;;;21.51;46.11;102696.53;4197046;28;20037;-70
2022/10/30 02:14:37;;;;;;;16.90;3.90;;;;;;;21.49;45.96;102702.34;4197142;28;20490;-70
2022/10/30 02:16:44;;;;;;;19.80;4.78;;;;;;;21.46;46.07;102693.63;4197095;28;20472;-70
2022/10/30 02:18:46;;;;;;;18.05;4.43;;;;;;;21.25;46.23;102656.03;4197518;28;20024;-71
2022/10/30 02:20:48;;;;;;;19.08;4.38;;;;;;;21.49;45.91;102707.91;4197644;28;20100;-70
2022/10/30 02:22:49;;;;;;;15.80;4.20;;;;;;;21.50;45.95;102703.19;4197373;28;20040;-69
2022/10/30 02:24:53;;;;;;;15.80;4.40;;;;;;;21.48;45.91;102697.00;4196828;28;20052;-72
2022/10/30 02:26:54;;;;;;;18.17;5.47;;;;;;;21.36;46.12;102673.88;4197050;28;20430;-70
2022/10/30 02:28:56;;;;;;;14.48;4.55;;;;;;;21.46;46.05;102697.25;4197598;28;20082;-70
2022/10/30 02:30:57;;;;;;;14.30;4.18;;;;;;;21.25;46.08;102662.44;4196968;28;20440;-69
2022/10/30 02:33:01;;;;;;;17.25;4.85;;;;;;;21.45;46.22;102694.72;4197401;28;20085;-70
2022/10/30 02:35:03;;;;;;;15.63;3.93;;;;;;;21.46;45.94;102690.84;4197208;28;20078;-70
2022/10/30 02:37:05;;;;;;;24.33;5.43;;;;;;;21.45;46.20;102690.00;4197248;28;20273;-70
2022/10/30 02:39:06;;;;;;;16.35;3.70;;;;;;;21.26;46.04;102652.19;4197186;28;20372;-71
2022/10/30 02:41:08;;;;;;;15.85;3.95;;;;;;;21.45;46.00;102683.56;4196932;28;20090;-70
2022/10/30 02:43:09;;;;;;;18.55;4.47;;;;;;;21.44;46.32;102674.38;4197324;28;20071;-71
2022/10/30 02:45:10;;;;;;;19.10;4.35;;;;;;;21.43;46.21;102675.44;4196678;28;20040;-71
2022/10/30 02:47:11;;;;;;;15.90;4.07;;;;;;;21.41;46.25;102671.22;4197207;28;20041;-71
2022/10/30 02:49:13;;;;;;;15.68;4.18;;;;;;;21.44;45.95;102682.72;4197382;28;20074;-70
2022/10/30 02:51:14;;;;;;;19.75;4.72;;;;;;;21.39;46.24;102673.38;4197117;28;20048;-71
2022/10/30 02:53:16;;;;;;;15.80;4.00;;;;;;;21.43;46.24;102674.59;4199117;28;20032;-71
2022/10/30 02:55:20;;;;;;;13.25;3.53;;;;;;;21.21;46.18;102630.63;4200019;28;20110;-71
2022/10/30 02:57:21;;;;;;;16.40;3.38;;;;;;;21.20;45.94;102628.91;4200529;28;20127;-70
2022/10/30 02:59:22;;;;;;;12.30;4.15;;;;;;;21.28;45.89;102650.84;4200271;28;20040;-71
2022/10/30 03:01:24;;;;;;;11.07;4.05;;;;;;;21.42;46.01;102670.13;4200103;28;20040;-71
2022/10/30 03:03:25;;;;;;;14.68;4.43;;;;;;;21.41;46.02;102665.66;4199987;28;20041;-71
2022/10/30 03:05:26;;;;;;;11.30;3.53;;;;;;;21.41;45.85;102665.66;4199813;28;20128;-71
2022/10/30 03:07:28;;;;;;;15.02;4.15;;;;;;;21.41;46.35;102671.22;4198748;28;20036;-71
2022/10/30 03:09:29;;;;;;;10.88;3.95;;;;;;;21.40;45.93;102664.81;4199390;28;20044;-71
2022/10/30 03:11:33;;;;;;;10.43;4.20;;;;;;;21.39;45.92;102653.88;4200191;28;20048;-70
2022/10/30 03:13:39;;;;;;;10.27;3.90;;;;;;;20.93;45.92;102586.81;4200078;28;20060;-70
2022/10/30 03:15:40;;;;;;;14.48;4.72;;;;;;;21.35;45.92;102652.69;4199414;28;20041;-70
2022/10/30 03:17:42;;;;;;;13.15;3.83;;;;;;;21.39;45.87;102662.25;4199927;28;20040;-69
2022/10/30 03:19:43;;;;;;;14.98;4.15;;;;;;;21.40;46.21;102663.97;4199981;28;20044;-70
2022/10/30 03:21:45;;;;;;;15.90;3.83;;;;;;;21.40;45.83;102661.19;4199922;28;20032;-72
2022/10/30 03:23:49;;;;;;;12.70;3.58;;;;;;;21.26;45.93;102646.63;4199633;28;20073;-72
2022/10/30 03:25:55;;;;;;;17.67;4.13;;;;;;;21.14;46.05;102620.72;4199253;28;20040;-70
2022/10/30 03:27:56;;;;;;;14.65;3.55;;;;;;;21.40;46.10;102655.59;4200171;28;20028;-70
2022/10/30 03:29:58;;;;;;;11.80;3.60;;;;;;;21.40;45.95;102658.41;4199797;28;20082;-70
2022/10/30 03:31:59;;;;;;;11.68;3.40;;;;;;;21.14;46.01;102612.34;4199786;28;20044;-70
2022/10/30 03:34:00;;;;;;;13.65;4.07;;;;;;;21.36;46.04;102641.31;4199531;28;20049;-72
2022/10/30 03:36:04;;;;;;;13.02;4.00;;;;;;;21.38;46.08;102643.84;4199324;28;20093;-71
2022/10/30 03:38:08;;;;;;;10.10;3.53;;;;;;;21.30;45.81;102642.22;4199839;28;20089;-71
2022/10/30 03:40:12;;;;;;;13.37;3.40;;;;;;;21.38;45.79;102671.69;4198091;28;20132;-71
2022/10/30 03:42:17;;;;;;;8.48;3.97;;;;;;;21.14;45.76;102599.28;4199202;28;20086;-71
2022/10/30 03:44:18;;;;;;;9.73;3.83;;;;;;;21.38;46.15;102632.72;4198101;28;20083;-71
2022/10/30 03:46:19;;;;;;;12.80;3.75;;;;;;;21.37;45.81;102631.88;4198775;28;20045;-71
2022/10/30 03:48:23;;;;;;;9.73;4.18;;;;;;;21.37;46.00;102633.81;4199573;28;20044;-71
2022/10/30 03:50:27;;;;;;;9.95;3.47;;;;;;;21.36;45.83;102630.19;4199638;28;20028;-71
2022/10/30 03:52:28;;;;;;;10.98;3.58;;;;;;;21.37;45.72;102639.38;4198989;28;20070;-71
2022/10/30 03:54:30;;;;;;;12.57;4.03;;;;;;;21.36;46.12;102634.91;4199294;28;20041;-71
2022/10/30 03:56:34;;;;;;;15.55;3.70;;;;;;;21.26;45.86;102616.84;4197817;28;20056;-71
2022/10/30 03:58:35;;;;;;;13.27;3.33;;;;;;;21.35;45.71;102633.19;4199533;28;20024;-72
2022/10/30 04:00:38;;;;;;;7.65;3.20;;;;;;;21.16;46.12;102597.09;4198142;28;20075;-72
2022/10/30 04:02:49;;;;;;;13.52;3.53;;;;;;;21.33;45.95;102629.81;4199163;28;20101;-72
2022/10/30 04:04:50;;;;;;;12.25;3.40;;;;;;;21.35;45.98;102624.81;4198975;28;20529;-72
2022/10/30 04:06:57;;;;;;;8.68;3.30;;;;;;;21.33;45.93;102618.66;4199044;28;20024;-71
2022/10/30 04:09:19;;;;;;;9.57;3.13;;;;;;;21.33;45.82;102618.66;4199002;28;20036;-71
2022/10/30 04:11:29;;;;;;;10.40;3.33;;;;;;;21.21;45.80;102602.81;4199338;28;20434;-71
2022/10/30 04:13:30;;;;;;;9.40;3.67;;;;;;;21.33;45.80;102616.72;4198871;28;20121;-71
2022/10/30 04:15:38;;;;;;;13.48;3.88;;;;;;;21.34;46.00;102623.13;4198807;28;20024;-71
2022/10/30 04:17:39;;;;;;;14.27;3.55;;;;;;;21.31;45.75;102611.41;4199126;28;20041;-71
2022/10/30 04:19:43;;;;;;;8.40;3.42;;;;;;;21.24;46.07;102601.44;4198702;28;20036;-71
2022/10/30 04:21:46;;;;;;;9.25;3.13;;;;;;;21.30;45.86;102612.47;4199011;28;20036;-71
2022/10/30 04:23:48;;;;;;;8.25;3.33;;;;;;;21.31;45.81;102605.00;4198890;28;20036;-71
2022/10/30 04:25:49;;;;;;;13.23;3.60;;;;;;;21.30;46.12;102609.69;4198633;28;20110;-71
2022/10/30 04:27:53;;;;;;;7.75;3.38;;;;;;;21.31;45.96;102613.34;4198946;28;20117;-71
2022/10/30 04:29:54;;;;;;;9.75;3.60;;;;;;;21.29;46.10;102602.41;4198988;28;20040;-70
2022/10/30 04:31:56;;;;;;;14.15;3.53;;;;;;;21.27;45.66;102599.03;4198556;28;20044;-71
2022/10/30 04:33:57;;;;;;;9.30;2.88;;;;;;;21.26;45.99;102590.94;4198601;28;20044;-71
2022/10/30 04:35:58;;;;;;;8.70;3.17;;;;;;;21.28;45.74;102600.72;4198484;28;20044;-71
2022/10/30 04:38:08;;;;;;;10.20;3.05;;;;;;;21.28;45.98;102603.50;4198431;28;20090;-70
2022/10/30 04:40:10;;;;;;;8.75;3.08;;;;;;;21.29;45.66;102601.56;4198810;28;20093;-71
2022/10/30 04:42:11;;;;;;;6.68;3.22;;;;;;;21.28;45.80;102592.38;4198279;28;20040;-71
2022/10/30 04:44:13;;;;;;;10.55;3.67;;;;;;;21.26;45.97;102597.34;4198723;28;20093;-71
2022/10/30 04:46:16;;;;;;;12.82;3.17;;;;;;;21.28;45.64;102606.28;4198381;28;20052;-70
2022/10/30 04:48:18;;;;;;;10.88;3.03;;;;;;;21.25;45.96;102598.41;4198596;28;20040;-71
2022/10/30 04:50:19;;;;;;;7.07;3.63;;;;;;;21.24;45.67;102599.50;4198030;28;20045;-71
2022/10/30 04:52:20;;;;;;;9.05;3.15;;;;;;;21.25;45.76;102601.19;4198142;28;20041;-71
2022/10/30 04:54:24;;;;;;;7.45;3.22;;;;;;;21.26;46.04;102602.91;4198104;28;20095;-71
2022/10/30 04:56:25;;;;;;;8.02;3.28;;;;;;;21.23;45.75;102596.97;4197813;28;20052;-71
2022/10/30 04:58:26;;;;;;;6.60;3.13;;;;;;;21.27;46.06;102606.53;4198008;28;20036;-70
2022/10/30 05:00:28;;;;;;;7.75;3.08;;;;;;;21.27;45.75;102599.03;4198494;28;20106;-71
2022/10/30 05:02:30;;;;;;;7.47;3.75;;;;;;;21.26;45.75;102602.91;4197263;28;20036;-70
2022/10/30 05:04:31;;;;;;;11.63;3.22;;;;;;;21.24;45.85;102599.50;4198299;28;20045;-70
2022/10/30 05:06:35;;;;;;;4.40;2.58;;;;;;;21.24;46.09;102599.50;4197780;28;20094;-71
2022/10/30 05:08:36;;;;;;;9.35;3.05;;;;;;;21.25;45.66;102590.06;4197971;28;20438;-71
2022/10/30 05:10:41;;;;;;;9.85;3.30;;;;;;;21.24;45.71;102585.59;4197593;28;20850;-70
2022/10/30 05:12:44;;;;;;;6.13;3.30;;;;;;;21.05;45.91;102557.03;4198172;28;20422;-71
2022/10/30 05:14:45;;;;;;;6.60;2.97;;;;;;;21.25;45.81;102589.22;4197921;28;20082;-71
2022/10/30 05:16:47;;;;;;;7.95;3.58;;;;;;;21.25;45.83;102594.78;4197473;28;20024;-70
2022/10/30 05:18:48;;;;;;;7.78;3.45;;;;;;;21.24;45.59;102588.38;4198112;28;20157;-71
2022/10/30 05:20:51;;;;;;;9.75;3.53;;;;;;;21.25;45.95;102589.22;4198113;28;20089;-71
2022/10/30 05:22:56;;;;;;;8.60;2.72;;;;;;;21.25;45.60;102589.22;4197874;28;20082;-71
2022/10/30 05:24:57;;;;;;;6.55;3.17;;;;;;;21.26;45.59;102596.50;4197864;28;20090;-71
2022/10/30 05:26:58;;;;;;;10.18;2.83;;;;;;;21.25;45.88;102598.41;4198322;28;20028;-70
2022/10/30 05:29:00;;;;;;;6.13;2.80;;;;;;;21.24;45.79;102588.38;4198136;28;20044;-72
2022/10/30 05:31:01;;;;;;;6.90;3.05;;;;;;;21.23;45.61;102583.91;4197935;28;20044;-71
2022/10/30 05:33:06;;;;;;;6.97;3.58;;;;;;;21.23;45.70;102581.13;4198095;28;20089;-70
2022/10/30 05:35:07;;;;;;;9.88;3.50;;;;;;;21.23;45.96;102578.34;4197620;28;20045;-71
2022/10/30 05:37:09;;;;;;;7.88;2.83;;;;;;;21.23;45.85;102569.97;4197899;28;20041;-70
2022/10/30 05:39:10;;;;;;;8.40;3.30;;;;;;;21.23;45.79;102563.56;4198230;28;20033;-70
2022/10/30 05:41:11;;;;;;;7.70;3.35;;;;;;;21.22;45.89;102568.28;4197837;28;20041;-70
2022/10/30 05:43:16;;;;;;;7.05;2.80;;;;;;;21.16;45.73;102562.84;4197956;28;20044;-70
2022/10/30 05:45:17;;;;;;;9.27;3.17;;;;;;;21.04;45.91;102537.81;4197474;28;20045;-71
2022/10/30 05:47:18;;;;;;;8.20;3.10;;;;;;;21.21;45.94;102563.81;4197854;28;20323;-70
2022/10/30 05:49:19;;;;;;;6.43;3.00;;;;;;;21.21;45.64;102558.25;4197838;28;20545;-71
2022/10/30 05:51:21;;;;;;;7.82;2.85;;;;;;;21.12;45.79;102543.00;4197664;28;20040;-70
2022/10/30 05:53:23;;;;;;;8.70;2.33;;;;;;;20.94;45.65;102509.75;4197494;28;20098;-70
2022/10/30 05:55:24;;;;;;;4.65;2.53;;;;;;;21.20;45.91;102556.53;4197528;28;20094;-70
2022/10/30 05:57:31;;;;;;;5.85;3.10;;;;;;;21.20;45.58;102550.97;4197927;28;20107;-70
2022/10/30 05:59:33;;;;;;;6.93;2.80;;;;;;;21.21;45.84;102554.59;4197777;28;20552;-71
2022/10/30 06:01:34;;;;;;;7.00;3.00;;;;;;;21.15;45.99;102548.06;4197337;28;20044;-70
2022/10/30 06:03:35;;;;;;;5.85;2.58;;;;;;;21.21;45.78;102555.47;4197642;28;20045;-71
2022/10/30 06:05:37;;;;;;;5.78;2.67;;;;;;;21.20;45.48;102548.19;4197032;28;20044;-70
2022/10/30 06:07:41;;;;;;;4.18;3.08;;;;;;;21.20;45.83;102548.19;4197833;28;20032;-71
2022/10/30 06:09:43;;;;;;;4.20;2.25;;;;;;;21.10;45.76;102528.47;4197557;28;20054;-71
2022/10/30 06:11:44;;;;;;;7.68;3.15;;;;;;;21.16;45.66;102541.41;4197591;28;20044;-70
2022/10/30 06:13:49;;;;;;;5.50;2.60;;;;;;;21.19;45.96;102540.09;4197520;28;20029;-70
2022/10/30 06:15:54;;;;;;;5.85;2.30;;;;;;;21.18;45.61;102533.69;4197251;28;20090;-71
2022/10/30 06:17:55;;;;;;;4.57;2.65;;;;;;;21.09;45.71;102523.16;4197556;28;20032;-70
2022/10/30 06:19:57;;;;;;;4.85;3.00;;;;;;;21.19;45.47;102546.50;4197522;28;20082;-70
2022/10/30 06:21:58;;;;;;;4.55;2.50;;;;;;;21.11;45.78;102532.09;4197569;28;20028;-71
2022/10/30 06:23:59;;;;;;;7.95;3.03;;;;;;;21.20;45.70;102544.56;4197232;28;20037;-71
2022/10/30 06:26:00;;;;;;;7.00;2.38;;;;;;;21.19;45.84;102546.50;4197215;28;20094;-70
2022/10/30 06:28:02;;;;;;;4.32;2.70;;;;;;;21.18;45.61;102544.81;4200823;28;20049;-70
2022/10/30 06:30:04;;;;;;;5.68;2.75;;;;;;;21.19;45.48;102545.66;4200366;28;20101;-71
2022/10/30 06:32:05;;;;;;;4.28;2.60;;;;;;;21.17;45.80;102537.56;4200980;28;20028;-71
2022/10/30 06:34:06;;;;;;;5.53;2.67;;;;;;;21.18;45.49;102546.75;4200767;28;20040;-71
2022/10/30 06:36:08;;;;;;;5.18;2.10;;;;;;;21.18;45.70;102544.81;4200664;28;20037;-71
2022/10/30 06:38:10;;;;;;;5.72;2.53;;;;;;;21.17;45.82;102542.28;4200814;28;20434;-71
2022/10/30 06:40:12;;;;;;;5.30;2.67;;;;;;;21.17;45.65;102548.69;4200323;28;20036;-71
2022/10/30 06:42:13;;;;;;;7.00;2.50;;;;;;;21.17;45.72;102543.13;4200228;28;20078;-71
2022/10/30 06:44:24;;;;;;;4.78;2.75;;;;;;;21.16;45.76;102538.63;4200704;28;20090;-71
2022/10/30 06:46:25;;;;;;;5.97;2.42;;;;;;;21.15;45.67;102538.88;4200477;28;20036;-70
2022/10/30 06:48:26;;;;;;;5.10;2.33;;;;;;;21.16;45.54;102541.41;4200516;28;20082;-71
2022/10/30 06:50:30;;;;;;;6.20;3.40;;;;;;;21.17;45.67;102545.06;4200333;28;20078;-71
2022/10/30 06:52:32;;;;;;;4.10;2.30;;;;;;;21.16;45.60;102541.41;4200629;28;20032;-71
2022/10/30 06:54:39;;;;;;;5.57;2.90;;;;;;;21.15;45.79;102539.72;4200350;28;20466;-71
2022/10/30 06:56:40;;;;;;;6.10;3.13;;;;;;;21.15;45.52;102531.38;4199941;28;20113;-71
2022/10/30 06:58:42;;;;;;;4.85;2.60;;;;;;;21.15;45.54;102533.31;4200941;28;20594;-70
2022/10/30 07:00:46;;;;;;;7.10;3.00;;;;;;;21.08;45.73;102522.31;4200336;28;20102;-71
2022/10/30 07:02:55;;;;;;;4.07;2.45;;;;;;;20.97;45.66;102509.25;4200318;28;20032;-71
2022/10/30 07:04:56;;;;;;;8.70;2.90;;;;;;;21.16;45.59;102535.00;4200418;28;20097;-71
2022/10/30 07:07:01;;;;;;;6.28;2.47;;;;;;;21.15;45.77;102533.31;4200065;28;20071;-71
2022/10/30 07:09:07;;;;;;;4.60;2.55;;;;;;;21.14;45.73;102529.69;4200375;28;20036;-71
2022/10/30 07:11:08;;;;;;;5.22;2.70;;;;;;;21.15;45.41;102525.81;4199855;28;20037;-71
2022/10/30 07:13:10;;;;;;;3.70;2.50;;;;;;;21.16;45.70;102533.06;4200076;28;20090;-70
2022/10/30 07:15:11;;;;;;;5.22;2.30;;;;;;;21.14;45.61;102521.34;4199824;28;20783;-71
2022/10/30 07:17:12;;;;;;;5.25;2.42;;;;;;;21.09;45.52;102506.47;4200079;28;20106;-71
2022/10/30 07:19:13;;;;;;;6.88;2.65;;;;;;;21.11;45.42;102510.69;4199771;28;20040;-71
2022/10/30 07:21:15;;;;;;;5.15;3.08;;;;;;;21.13;45.42;102519.66;4199944;28;20036;-71
2022/10/30 07:23:19;;;;;;;4.93;2.67;;;;;;;21.13;45.46;102525.22;4199884;28;20162;-71
2022/10/30 07:25:20;;;;;;;4.45;2.55;;;;;;;20.94;45.43;102499.47;4199820;28;20042;-71
2022/10/30 07:27:24;;;;;;;5.43;2.53;;;;;;;21.12;45.45;102517.09;4199618;28;20090;-71
2022/10/30 07:29:25;;;;;;;4.25;2.50;;;;;;;21.12;45.43;102514.31;4199905;28;20098;-71
2022/10/30 07:31:27;;;;;;;3.22;2.35;;;;;;;21.11;45.32;102519.03;4198580;28;20037;-71
2022/10/30 07:33:31;;;;;;;2.90;2.00;;;;;;;21.11;45.33;102513.47;4199465;28;20102;-70
2022/10/30 07:35:34;;;;;;;4.38;2.53;;;;;;;21.12;45.59;102517.09;4199536;28;20373;-71
2022/10/30 07:37:45;;;;;;;3.92;2.40;;;;;;;21.12;45.47;102511.53;4199696;28;20098;-71
2022/10/30 07:39:49;;;;;;;3.78;2.75;;;;;;;21.11;45.60;102510.69;4199349;28;20078;-70
2022/10/30 07:41:50;;;;;;;4.68;2.40;;;;;;;20.98;45.41;102488.66;4199835;28;20048;-71
2022/10/30 07:43:54;;;;;;;7.05;3.15;;;;;;;21.06;45.50;102494.72;4199703;28;20041;-71
2022/10/30 07:45:56;;;;;;;4.97;2.70;;;;;;;21.11;45.32;102498.69;4199450;28;20110;-71
2022/10/30 07:47:57;;;;;;;3.17;2.30;;;;;;;21.12;45.62;102494.81;4199552;28;20052;-71
2022/10/30 07:49:58;;;;;;;3.28;2.22;;;;;;;20.84;45.36;102449.13;4199792;28;20049;-71
2022/10/30 07:52:00;;;;;;;4.60;2.58;;;;;;;21.09;45.33;102493.38;4199638;28;20044;-71
2022/10/30 07:54:01;;;;;;;4.72;2.60;;;;;;;21.04;45.13;102498.84;4199408;28;20036;-71
2022/10/30 07:56:02;;;;;;;3.67;2.17;;;;;;;21.09;45.47;102496.19;4198731;28;20044;-70
2022/10/30 07:58:04;;;;;;;4.10;2.47;;;;;;;21.09;45.37;102496.19;4199426;28;20094;-71
2022/10/30 08:00:11;;;;;;;5.00;2.50;;;;;;;20.93;45.52;102481.06;4199061;28;20041;-71
2022/10/30 08:02:12;;;;;;;7.07;2.65;;;;;;;20.40;45.18;102384.69;4198920;28;20045;-71
2022/10/30 08:04:16;;;;;;;5.93;2.97;;;;;;;21.08;45.23;102500.06;4199168;28;20098;-71
2022/10/30 08:06:17;;;;;;;4.43;2.60;;;;;;;21.09;45.40;102481.41;4198922;28;20102;-71
2022/10/30 08:08:18;;;;;;;4.43;2.78;;;;;;;21.09;45.53;102490.59;4199545;28;20040;-71
2022/10/30 08:10:20;;;;;;;4.55;2.67;;;;;;;21.10;45.38;102481.16;4199231;28;20090;-70
2022/10/30 08:12:27;;;;;;;4.03;2.40;;;;;;;21.09;45.41;102479.47;4199262;28;20445;-70
2022/10/30 08:14:28;;;;;;;3.80;2.30;;;;;;;21.02;45.29;102464.84;4198879;28;20422;-71
2022/10/30 08:16:29;;;;;;;4.38;2.67;;;;;;;21.08;45.50;102475.00;4198957;28;20097;-70
2022/10/30 08:18:31;;;;;;;3.85;2.60;;;;;;;21.08;45.57;102477.78;4198755;28;20033;-71
2022/10/30 08:20:35;;;;;;;4.90;2.38;;;;;;;21.08;45.53;102477.78;4199233;28;20025;-70
2022/10/30 08:22:47;;;;;;;4.00;2.33;;;;;;;21.06;45.21;102469.66;4198950;28;20434;-71
2022/10/30 08:24:52;;;;;;;4.95;2.67;;;;;;;21.08;45.50;102475.00;4199221;28;20033;-71
2022/10/30 08:26:59;;;;;;;4.28;2.40;;;;;;;21.07;45.26;102470.50;4198831;28;20449;-71
2022/10/30 08:29:03;;;;;;;3.75;2.58;;;;;;;20.83;45.35;102430.75;4199135;28;20356;-71
2022/10/30 08:31:04;;;;;;;6.77;2.47;;;;;;;21.06;45.12;102475.22;4199104;28;20414;-71
2022/10/30 08:33:13;;;;;;;3.65;2.20;;;;;;;21.07;45.21;102490.00;4198548;28;20044;-71
2022/10/30 08:35:17;;;;;;;4.60;2.47;;;;;;;20.81;45.34;102436.56;4198659;28;20052;-71
2022/10/30 08:37:21;;;;;;;3.40;2.70;;;;;;;21.06;45.20;102478.00;4199018;28;20033;-71
2022/10/30 08:39:22;;;;;;;3.50;2.20;;;;;;;21.07;45.09;102476.06;4198470;28;20277;-70
2022/10/30 08:41:23;;;;;;;3.75;2.50;;;;;;;20.80;45.13;102431.22;4198377;28;20040;-71
2022/10/30 08:43:27;;;;;;;4.47;2.65;;;;;;;21.05;45.44;102465.19;4198657;28;20098;-71
2022/10/30 08:45:31;;;;;;;5.32;2.60;;;;;;;21.05;45.11;102469.91;4198183;28;20105;-71
2022/10/30 08:47:32;;;;;;;3.43;2.37;;;;;;;21.04;45.26;102465.44;4198859;28;20070;-72
2022/10/30 08:49:34;;;;;;;4.43;2.40;;;;;;;20.99;45.50;102470.91;4198368;28;20044;-71
2022/10/30 08:51:35;;;;;;;4.70;2.67;;;;;;;21.04;45.42;102473.81;4197633;28;20040;-71
2022/10/30 08:53:36;;;;;;;5.60;2.58;;;;;;;21.04;45.34;102476.59;4198462;28;20048;-71
2022/10/30 08:55:38;;;;;;;4.22;2.75;;;;;;;21.00;45.23;102464.25;4198154;28;20537;-71
2022/10/30 08:57:39;;;;;;;4.88;2.55;;;;;;;21.01;45.47;102463.16;4198460;28;20040;-70
2022/10/30 08:59:40;;;;;;;4.45;2.78;;;;;;;21.01;45.16;102463.16;4198441;28;20044;-71
2022/10/30 09:01:46;;;;;;;3.75;2.33;;;;;;;21.01;45.30;102466.78;4198041;28;20032;-71
2022/10/30 09:03:47;;;;;;;3.20;2.20;;;;;;;21.01;45.21;102469.56;4198373;28;20036;-71
2022/10/30 09:05:49;;;;;;;4.75;2.38;;;;;;;20.78;45.24;102434.25;4197977;28;20045;-71
2022/10/30 09:07:56;;;;;;;3.40;2.10;;;;;;;20.68;45.35;102414.56;4197870;28;20040;-70
2022/10/30 09:09:57;;;;;;;3.35;2.58;;;;;;;21.00;45.40;102465.09;4198118;28;20094;-71
2022/10/30 09:11:58;;;;;;;3.97;2.50;;;;;;;21.00;45.16;102475.38;4198376;28;20078;-71
2022/10/30 09:14:02;;;;;;;3.17;2.47;;;;;;;21.00;45.33;102479.00;4196787;28;20049;-71
2022/10/30 09:16:04;;;;;;;4.95;2.60;;;;;;;20.89;45.23;102456.75;4197926;28;20036;-71
2022/10/30 09:18:06;;;;;;;3.17;2.25;;;;;;;21.01;45.12;102465.94;4197262;28;20102;-71
2022/10/30 09:20:10;;;;;;;3.28;2.13;;;;;;;21.00;45.19;102465.09;4197875;28;20036;-71
2022/10/30 09:22:11;;;;;;;4.57;2.70;;;;;;;21.00;44.99;102475.38;4198119;28;20442;-70
2022/10/30 09:24:13;;;;;;;3.45;2.30;;;;;;;21.01;44.93;102465.94;4197754;28;20423;-70
2022/10/30 09:26:14;;;;;;;4.03;2.30;;;;;;;21.01;45.07;102475.13;4197380;28;20040;-70
2022/10/30 09:30:37;;;;;;;4.07;2.80;;;;;;;21.00;45.17;102458.69;4196550;28;20033;-71
2022/10/30 09:32:44;;;;;;;2.53;2.25;;;;;;;20.86;45.22;102437.78;4198286;28;20094;-71
2022/10/30 09:34:51;;;;;;;5.22;2.70;;;;;;;20.99;45.36;102470.91;4198281;28;20036;-71
2022/10/30 09:36:54;;;;;;;4.80;2.20;;;;;;;20.73;45.28;102423.03;4197635;28;20036;-70
2022/10/30 09:38:56;;;;;;;3.55;2.58;;;;;;;20.98;45.00;102469.19;4198131;28;20090;-71